createdAt,value
2023-04-14T00:00:39.566Z,4.85
2023-04-14T00:01:41.326Z,4.15
2023-04-14T00:02:43.145Z,4.22
2023-04-14T00:03:46.133Z,3.65
2023-04-14T00:04:54.166Z,4.13
2023-04-14T00:05:56.113Z,4.53
2023-04-14T00:07:00.059Z,3.90
2023-04-14T00:08:02.013Z,3.35
2023-04-14T00:09:05.493Z,3.77
2023-04-14T00:10:07.621Z,4.65
2023-04-14T00:11:09.275Z,3.90
2023-04-14T00:12:11.306Z,4.07
2023-04-14T00:13:12.937Z,4.05
2023-04-14T00:14:15.106Z,4.07
2023-04-14T00:15:16.790Z,4.50
2023-04-14T00:16:18.716Z,4.93
2023-04-14T00:17:20.497Z,4.28
2023-04-14T00:18:22.308Z,3.63
2023-04-14T00:19:24.093Z,4.63
2023-04-14T00:20:25.828Z,3.70
2023-04-14T00:21:27.698Z,4.55
2023-04-14T00:22:30.059Z,3.65
2023-04-14T00:23:31.900Z,4.45
2023-04-14T00:24:33.874Z,3.58
2023-04-14T00:25:35.606Z,4.68
2023-04-14T00:26:37.547Z,3.80
2023-04-14T00:27:39.434Z,4.30
2023-04-14T00:28:41.661Z,4.18
2023-04-14T00:29:43.840Z,3.67
2023-04-14T00:30:47.262Z,3.88
2023-04-14T00:31:49.234Z,4.65
2023-04-14T00:32:51.801Z,4.03
2023-04-14T00:33:53.564Z,3.88
2023-04-14T00:34:57.128Z,4.32
2023-04-14T00:35:59.096Z,4.35
2023-04-14T00:37:00.975Z,4.00
2023-04-14T00:38:02.783Z,3.35
2023-04-14T00:39:04.825Z,3.75
2023-04-14T00:40:09.249Z,3.50
2023-04-14T00:41:10.996Z,3.78
2023-04-14T00:42:12.623Z,3.67
2023-04-14T00:43:18.930Z,3.95
2023-04-14T00:44:20.589Z,4.10
2023-04-14T00:45:22.295Z,4.72
2023-04-14T00:46:24.090Z,4.13
2023-04-14T00:47:26.648Z,5.05
2023-04-14T00:48:29.458Z,4.55
2023-04-14T00:49:31.498Z,4.15
2023-04-14T00:50:33.640Z,4.10
2023-04-14T00:51:36.714Z,3.88
2023-04-14T00:52:40.024Z,4.05
2023-04-14T00:53:42.671Z,3.67
2023-04-14T00:54:44.797Z,4.40
2023-04-14T00:55:47.107Z,3.80
2023-04-14T00:56:50.281Z,4.10
2023-04-14T00:57:52.358Z,4.00
2023-04-14T00:58:54.146Z,3.92
2023-04-14T00:59:58.776Z,2.85
2023-04-14T01:01:00.774Z,3.55
2023-04-14T01:02:02.670Z,3.58
2023-04-14T01:03:05.808Z,3.63
2023-04-14T01:04:08.004Z,4.05
2023-04-14T01:05:09.898Z,3.90
2023-04-14T01:06:11.653Z,2.60
2023-04-14T01:07:13.292Z,3.80
2023-04-14T01:08:15.534Z,4.03
2023-04-14T01:09:17.395Z,3.40
2023-04-14T01:10:19.392Z,4.00
2023-04-14T01:11:48.962Z,3.30
2023-04-14T01:13:04.191Z,3.05
2023-04-14T01:14:42.126Z,3.50
2023-04-14T01:15:52.758Z,3.13
2023-04-14T01:17:04.399Z,3.83
2023-04-14T01:18:19.781Z,3.47
2023-04-14T01:19:42.907Z,3.10
2023-04-14T01:20:50.417Z,3.00
2023-04-14T01:22:04.722Z,3.47
2023-04-14T01:23:17.839Z,3.63
2023-04-14T01:24:44.430Z,4.72
2023-04-14T01:26:23.493Z,3.22
2023-04-14T01:27:31.461Z,3.70
2023-04-14T01:28:45.866Z,3.70
2023-04-14T01:30:03.100Z,4.15
2023-04-14T01:31:16.715Z,4.28
2023-04-14T01:32:23.296Z,4.28
2023-04-14T01:33:27.246Z,3.50
2023-04-14T01:34:38.139Z,3.67
2023-04-14T01:35:50.561Z,4.10
2023-04-14T01:37:01.407Z,3.38
2023-04-14T01:38:22.406Z,3.70
2023-04-14T01:39:31.034Z,4.65
2023-04-14T01:40:34.326Z,4.35
2023-04-14T01:41:39.255Z,3.60
2023-04-14T01:42:47.679Z,4.30
2023-04-14T01:43:54.057Z,4.85
2023-04-14T01:44:58.752Z,4.72
2023-04-14T01:46:09.642Z,3.28
2023-04-14T01:47:15.583Z,4.15
2023-04-14T01:48:18.010Z,4.88
2023-04-14T01:49:23.438Z,4.20
2023-04-14T01:50:27.189Z,4.25
2023-04-14T01:51:31.119Z,3.97
2023-04-14T01:52:35.890Z,5.32
2023-04-14T01:53:42.872Z,4.00
2023-04-14T01:54:48.049Z,4.15
2023-04-14T01:55:52.622Z,4.00
2023-04-14T01:56:57.121Z,4.25
2023-04-14T01:57:59.856Z,4.30
2023-04-14T01:59:02.763Z,3.55
2023-04-14T02:00:07.772Z,3.50
2023-04-14T02:01:10.284Z,3.85
2023-04-14T02:02:14.105Z,3.30
2023-04-14T02:03:19.599Z,3.63
2023-04-14T02:04:26.348Z,3.85
2023-04-14T02:05:29.378Z,3.70
2023-04-14T02:06:32.595Z,4.10
2023-04-14T02:07:35.234Z,4.70
2023-04-14T02:08:38.989Z,4.30
2023-04-14T02:09:43.212Z,4.82
2023-04-14T02:10:48.379Z,4.53
2023-04-14T02:11:51.843Z,3.97
2023-04-14T02:12:57.473Z,4.20
2023-04-14T02:14:00.835Z,4.40
2023-04-14T02:15:03.269Z,4.20
2023-04-14T02:16:07.589Z,4.80
2023-04-14T02:17:13.872Z,3.97
2023-04-14T02:18:18.998Z,3.30
2023-04-14T02:19:23.069Z,4.70
2023-04-14T02:20:28.236Z,4.20
2023-04-14T02:21:31.403Z,3.38
2023-04-14T02:22:33.161Z,3.40
2023-04-14T02:23:35.082Z,5.05
2023-04-14T02:24:36.706Z,4.25
2023-04-14T02:25:44.961Z,4.75
2023-04-14T02:27:04.105Z,3.60
2023-04-14T02:28:10.496Z,4.45
2023-04-14T02:29:15.422Z,4.20
2023-04-14T02:30:22.793Z,4.72
2023-04-14T02:31:27.233Z,4.22
2023-04-14T02:32:31.570Z,3.42
2023-04-14T02:33:37.568Z,3.60
2023-04-14T02:35:02.037Z,3.58
2023-04-14T02:36:10.869Z,4.05
2023-04-14T02:37:19.347Z,3.85
2023-04-14T02:38:42.116Z,4.18
2023-04-14T02:39:47.595Z,4.80
2023-04-14T02:40:50.705Z,4.38
2023-04-14T02:41:58.568Z,4.43
2023-04-14T02:43:10.604Z,4.13
2023-04-14T02:44:23.273Z,3.40
2023-04-14T02:45:28.894Z,3.28
2023-04-14T02:46:36.124Z,3.55
2023-04-14T02:47:43.646Z,3.70
2023-04-14T02:48:48.347Z,3.35
2023-04-14T02:49:52.671Z,4.13
2023-04-14T02:50:56.815Z,3.90
2023-04-14T02:51:59.402Z,4.75
2023-04-14T02:53:03.390Z,4.72
2023-04-14T02:54:05.970Z,3.80
2023-04-14T02:55:10.830Z,3.95
2023-04-14T02:56:13.120Z,4.03
2023-04-14T02:57:15.677Z,3.80
2023-04-14T02:58:17.701Z,4.20
2023-04-14T02:59:22.148Z,3.88
2023-04-14T03:00:24.476Z,3.67
2023-04-14T03:01:27.305Z,3.92
2023-04-14T03:02:29.985Z,4.20
2023-04-14T03:03:35.425Z,4.30
2023-04-14T03:04:38.974Z,4.53
2023-04-14T03:05:43.684Z,4.35
2023-04-14T03:06:46.305Z,4.18
2023-04-14T03:07:52.784Z,5.07
2023-04-14T03:08:55.564Z,4.55
2023-04-14T03:09:58.184Z,4.82
2023-04-14T03:11:01.333Z,4.95
2023-04-14T03:12:04.468Z,4.55
2023-04-14T03:13:08.852Z,4.80
2023-04-14T03:14:12.075Z,5.03
2023-04-14T03:15:13.801Z,4.22
2023-04-14T03:16:18.565Z,4.55
2023-04-14T03:17:21.702Z,4.72
2023-04-14T03:18:24.802Z,4.85
2023-04-14T03:19:28.207Z,4.63
2023-04-14T03:20:30.561Z,4.80
2023-04-14T03:21:33.682Z,5.20
2023-04-14T03:22:42.349Z,5.55
2023-04-14T03:23:48.686Z,5.32
2023-04-14T03:24:57.177Z,4.65
2023-04-14T03:26:00.247Z,4.60
2023-04-14T03:27:06.119Z,4.80
2023-04-14T03:28:11.898Z,4.55
2023-04-14T03:29:15.793Z,4.43
2023-04-14T03:30:18.253Z,4.95
2023-04-14T03:31:24.416Z,4.57
2023-04-14T03:32:33.338Z,4.82
2023-04-14T03:33:36.049Z,4.38
2023-04-14T03:34:42.149Z,4.22
2023-04-14T03:35:45.613Z,4.78
2023-04-14T03:36:51.005Z,4.95
2023-04-14T03:37:59.646Z,4.65
2023-04-14T03:39:03.061Z,5.00
2023-04-14T03:40:07.931Z,4.60
2023-04-14T03:41:12.061Z,4.78
2023-04-14T03:42:14.472Z,4.32
2023-04-14T03:43:22.705Z,4.50
2023-04-14T03:44:27.581Z,5.50
2023-04-14T03:45:29.414Z,5.28
2023-04-14T03:46:31.898Z,4.43
2023-04-14T03:47:34.226Z,5.38
2023-04-14T03:48:42.464Z,5.22
2023-04-14T03:49:48.851Z,4.35
2023-04-14T03:50:53.859Z,4.32
2023-04-14T03:51:59.781Z,4.25
2023-04-14T03:53:01.829Z,5.00
2023-04-14T03:54:07.024Z,4.93
2023-04-14T03:55:12.690Z,4.10
2023-04-14T03:56:16.279Z,6.30
2023-04-14T03:57:20.729Z,4.85
2023-04-14T03:58:23.339Z,4.10
2023-04-14T03:59:27.528Z,4.53
2023-04-14T04:00:30.978Z,5.65
2023-04-14T04:01:34.205Z,4.13
2023-04-14T04:02:37.919Z,4.25
2023-04-14T04:03:41.361Z,4.20
2023-04-14T04:04:44.990Z,4.93
2023-04-14T04:05:49.091Z,3.30
2023-04-14T04:06:51.677Z,4.57
2023-04-14T04:07:56.567Z,4.20
2023-04-14T04:09:00.046Z,4.50
2023-04-14T04:10:05.154Z,4.82
2023-04-14T04:11:08.473Z,5.60
2023-04-14T04:12:13.708Z,4.60
2023-04-14T04:13:17.683Z,4.00
2023-04-14T04:14:21.789Z,4.40
2023-04-14T04:15:23.976Z,4.20
2023-04-14T04:16:28.152Z,4.18
2023-04-14T04:17:33.131Z,4.10
2023-04-14T04:18:38.923Z,4.18
2023-04-14T04:19:43.671Z,4.90
2023-04-14T04:20:47.050Z,4.00
2023-04-14T04:21:53.638Z,4.40
2023-04-14T04:22:57.691Z,4.38
2023-04-14T04:24:02.115Z,3.85
2023-04-14T04:25:05.760Z,4.75
2023-04-14T04:26:08.116Z,4.93
2023-04-14T04:27:20.408Z,3.63
2023-04-14T04:28:28.975Z,4.20
2023-04-14T04:29:31.184Z,4.30
2023-04-14T04:30:38.744Z,4.10
2023-04-14T04:31:40.948Z,6.20
2023-04-14T04:32:42.730Z,4.07
2023-04-14T04:33:45.922Z,4.53
2023-04-14T04:34:49.820Z,4.50
2023-04-14T04:35:53.403Z,4.00
2023-04-14T04:36:55.708Z,4.85
2023-04-14T04:37:58.587Z,5.28
2023-04-14T04:39:00.491Z,4.00
2023-04-14T04:40:02.938Z,5.20
2023-04-14T04:41:04.675Z,4.68
2023-04-14T04:42:06.928Z,4.90
2023-04-14T04:43:08.634Z,4.03
2023-04-14T04:44:10.472Z,3.95
2023-04-14T04:45:12.523Z,4.35
2023-04-14T04:46:29.380Z,4.05
2023-04-14T04:47:31.150Z,4.80
2023-04-14T04:48:32.886Z,4.20
2023-04-14T04:49:34.502Z,4.22
2023-04-14T04:50:36.212Z,4.40
2023-04-14T04:51:39.282Z,4.88
2023-04-14T04:52:41.253Z,5.13
2023-04-14T04:53:42.939Z,6.10
2023-04-14T04:54:45.440Z,5.25
2023-04-14T04:55:47.116Z,5.55
2023-04-14T04:56:49.865Z,5.40
2023-04-14T04:57:51.738Z,5.70
2023-04-14T04:58:53.842Z,5.07
2023-04-14T04:59:55.607Z,5.78
2023-04-14T05:00:57.329Z,6.05
2023-04-14T05:01:59.636Z,5.30
2023-04-14T05:03:01.720Z,6.30
2023-04-14T05:04:03.764Z,6.45
2023-04-14T05:05:05.802Z,5.97
2023-04-14T05:06:07.498Z,5.95
2023-04-14T05:07:09.396Z,5.00
2023-04-14T05:08:12.510Z,4.70
2023-04-14T05:09:16.192Z,4.95
2023-04-14T05:10:19.882Z,5.15
2023-04-14T05:11:21.908Z,5.15
2023-04-14T05:12:26.499Z,6.00
2023-04-14T05:13:28.105Z,5.60
2023-04-14T05:14:29.709Z,5.78
2023-04-14T05:15:31.864Z,6.13
2023-04-14T05:16:33.860Z,5.97
2023-04-14T05:17:35.844Z,7.05
2023-04-14T05:18:37.904Z,6.25
2023-04-14T05:19:39.615Z,6.32
2023-04-14T05:20:41.290Z,6.47
2023-04-14T05:21:43.076Z,5.97
2023-04-14T05:22:45.017Z,5.85
2023-04-14T05:23:47.965Z,5.70
2023-04-14T05:24:50.878Z,6.00
2023-04-14T05:26:07.218Z,5.40
2023-04-14T05:27:19.376Z,5.88
2023-04-14T05:28:20.999Z,4.82
2023-04-14T05:29:22.648Z,5.10
2023-04-14T05:30:24.496Z,4.85
2023-04-14T05:31:26.852Z,4.80
2023-04-14T05:32:29.309Z,3.88
2023-04-14T05:33:31.254Z,4.75
2023-04-14T05:34:33.055Z,4.60
2023-04-14T05:35:34.791Z,4.38
2023-04-14T05:36:36.671Z,4.22
2023-04-14T05:37:38.273Z,4.25
2023-04-14T05:38:40.114Z,4.53
2023-04-14T05:39:41.886Z,4.43
2023-04-14T05:40:43.839Z,4.40
2023-04-14T05:41:45.560Z,4.47
2023-04-14T05:42:47.312Z,4.25
2023-04-14T05:43:49.316Z,4.00
2023-04-14T05:44:51.059Z,3.60
2023-04-14T05:45:52.820Z,4.60
2023-04-14T05:46:54.683Z,3.50
2023-04-14T05:47:56.636Z,4.65
2023-04-14T05:48:59.278Z,4.47
2023-04-14T05:50:03.805Z,4.43
2023-04-14T05:51:05.515Z,3.95
2023-04-14T05:52:07.293Z,4.30
2023-04-14T05:53:08.940Z,3.85
2023-04-14T05:54:10.701Z,4.25
2023-04-14T05:55:12.396Z,3.80
2023-04-14T05:56:14.325Z,4.40
2023-04-14T05:57:15.932Z,4.57
2023-04-14T05:58:18.440Z,4.57
2023-04-14T05:59:21.130Z,4.45
2023-04-14T06:00:25.094Z,4.80
2023-04-14T06:01:26.863Z,5.68
2023-04-14T06:02:28.773Z,3.78
2023-04-14T06:03:31.011Z,4.53
2023-04-14T06:04:34.126Z,4.68
2023-04-14T06:05:35.976Z,4.25
2023-04-14T06:06:37.795Z,4.05
2023-04-14T06:07:42.056Z,4.28
2023-04-14T06:08:43.760Z,3.30
2023-04-14T06:09:46.565Z,4.32
2023-04-14T06:10:48.392Z,4.45
2023-04-14T06:11:51.237Z,3.75
2023-04-14T06:12:53.089Z,4.50
2023-04-14T06:13:55.001Z,3.80
2023-04-14T06:14:56.782Z,4.90
2023-04-14T06:15:59.493Z,5.10
2023-04-14T06:17:01.488Z,3.83
2023-04-14T06:18:03.260Z,4.13
2023-04-14T06:19:05.132Z,4.70
2023-04-14T06:20:08.850Z,3.97
2023-04-14T06:21:11.521Z,4.30
2023-04-14T06:22:17.136Z,5.20
2023-04-14T06:23:19.575Z,5.00
2023-04-14T06:24:21.305Z,5.40
2023-04-14T06:25:23.087Z,4.15
2023-04-14T06:26:25.816Z,5.07
2023-04-14T06:27:27.745Z,4.70
2023-04-14T06:28:29.539Z,5.38
2023-04-14T06:29:31.588Z,4.57
2023-04-14T06:30:33.985Z,5.10
2023-04-14T06:31:36.538Z,4.90
2023-04-14T06:32:38.773Z,4.90
2023-04-14T06:33:40.981Z,4.88
2023-04-14T06:34:42.657Z,3.30
2023-04-14T06:35:45.207Z,3.25
2023-04-14T06:36:47.073Z,3.38
2023-04-14T06:37:49.201Z,4.38
2023-04-14T06:38:51.505Z,2.97
2023-04-14T06:39:53.669Z,3.58
2023-04-14T06:40:55.358Z,3.50
2023-04-14T06:41:57.176Z,3.10
2023-04-14T06:42:58.904Z,2.85
2023-04-14T06:44:00.716Z,3.08
2023-04-14T06:45:02.398Z,2.80
2023-04-14T06:46:04.191Z,2.88
2023-04-14T06:47:06.023Z,3.30
2023-04-14T06:48:08.002Z,3.08
2023-04-14T06:49:09.941Z,3.53
2023-04-14T06:50:12.624Z,3.00
2023-04-14T06:51:14.541Z,2.72
2023-04-14T06:52:16.276Z,2.88
2023-04-14T06:53:18.635Z,2.63
2023-04-14T06:54:20.284Z,2.60
2023-04-14T06:55:21.953Z,3.50
2023-04-14T06:56:23.883Z,2.80
2023-04-14T06:57:26.446Z,2.77
2023-04-14T06:58:29.074Z,2.70
2023-04-14T06:59:31.180Z,2.80
2023-04-14T07:00:32.839Z,2.27
2023-04-14T07:01:34.718Z,2.47
2023-04-14T07:02:37.203Z,2.40
2023-04-14T07:03:40.427Z,2.30
2023-04-14T07:04:42.169Z,2.20
2023-04-14T07:05:43.954Z,2.63
2023-04-14T07:06:45.844Z,2.40
2023-04-14T07:07:47.529Z,2.67
2023-04-14T07:08:50.095Z,2.53
2023-04-14T07:09:52.471Z,3.23
2023-04-14T07:10:59.754Z,2.57
2023-04-14T07:12:01.889Z,3.40
2023-04-14T07:13:03.600Z,2.80
2023-04-14T07:14:05.698Z,2.40
2023-04-14T07:15:08.293Z,2.40
2023-04-14T07:16:10.125Z,2.27
2023-04-14T07:17:11.953Z,2.30
2023-04-14T07:18:13.689Z,2.50
2023-04-14T07:19:15.830Z,2.33
2023-04-14T07:20:17.519Z,2.60
2023-04-14T07:21:19.237Z,3.77
2023-04-14T07:22:21.405Z,3.30
2023-04-14T07:23:23.395Z,2.80
2023-04-14T07:24:26.885Z,2.30
2023-04-14T07:25:29.105Z,2.97
2023-04-14T07:26:31.076Z,2.80
2023-04-14T07:27:32.911Z,2.30
2023-04-14T07:28:34.549Z,2.20
2023-04-14T07:29:36.483Z,2.33
2023-04-14T07:30:38.243Z,2.53
2023-04-14T07:31:40.329Z,2.60
2023-04-14T07:32:42.302Z,2.23
2023-04-14T07:33:44.034Z,2.90
2023-04-14T07:34:45.738Z,2.63
2023-04-14T07:36:02.078Z,2.50
2023-04-14T07:37:04.893Z,3.42
2023-04-14T07:38:07.814Z,2.83
2023-04-14T07:39:09.533Z,2.77
2023-04-14T07:40:11.703Z,2.43
2023-04-14T07:41:13.531Z,3.00
2023-04-14T07:42:15.306Z,2.57
2023-04-14T07:43:17.282Z,2.63
2023-04-14T07:44:18.955Z,2.23
2023-04-14T07:45:20.778Z,2.53
2023-04-14T07:46:22.544Z,2.97
2023-04-14T07:47:24.444Z,2.75
2023-04-14T07:48:26.298Z,2.72
2023-04-14T07:49:28.058Z,2.53
2023-04-14T07:50:29.860Z,2.53
2023-04-14T07:51:31.634Z,2.63
2023-04-14T07:52:33.529Z,2.73
2023-04-14T07:53:40.300Z,2.43
2023-04-14T07:54:42.075Z,3.10
2023-04-14T07:55:43.948Z,3.03
2023-04-14T07:56:46.042Z,2.63
2023-04-14T07:57:48.066Z,2.67
2023-04-14T07:58:50.304Z,2.42
2023-04-14T07:59:53.224Z,2.60
2023-04-14T08:00:55.104Z,2.70
2023-04-14T08:01:57.252Z,1.90
2023-04-14T08:02:59.399Z,2.72
2023-04-14T08:04:01.632Z,2.80
2023-04-14T08:05:03.957Z,3.05
2023-04-14T08:06:06.874Z,2.70
2023-04-14T08:07:08.768Z,2.10
2023-04-14T08:08:10.438Z,2.78
2023-04-14T08:09:12.391Z,2.60
2023-04-14T08:10:14.124Z,2.97
2023-04-14T08:11:16.207Z,2.57
2023-04-14T08:12:18.645Z,2.30
2023-04-14T08:13:20.381Z,2.53
2023-04-14T08:14:22.327Z,2.53
2023-04-14T08:15:24.207Z,2.90
2023-04-14T08:16:26.586Z,3.20
2023-04-14T08:17:28.597Z,2.60
2023-04-14T08:18:30.624Z,2.70
2023-04-14T08:19:33.845Z,2.43
2023-04-14T08:20:35.619Z,2.60
2023-04-14T08:21:37.380Z,2.57
2023-04-14T08:22:39.655Z,2.30
2023-04-14T08:23:41.718Z,2.77
2023-04-14T08:24:43.441Z,2.43
2023-04-14T08:25:45.632Z,2.30
2023-04-14T08:26:47.334Z,1.80
2023-04-14T08:27:49.389Z,1.80
2023-04-14T08:28:51.762Z,1.83
2023-04-14T08:29:54.278Z,2.43
2023-04-14T08:30:56.251Z,2.10
2023-04-14T08:31:58.159Z,2.57
2023-04-14T08:33:00.187Z,2.50
2023-04-14T08:34:02.117Z,2.50
2023-04-14T08:35:35.088Z,3.17
2023-04-14T08:36:27.020Z,2.07
2023-04-14T08:37:29.049Z,2.20
2023-04-14T08:38:31.059Z,2.25
2023-04-14T08:39:32.891Z,2.20
2023-04-14T08:40:43.403Z,2.17
2023-04-14T08:41:45.472Z,2.17
2023-04-14T08:42:47.572Z,2.67
2023-04-14T08:43:49.408Z,2.50
2023-04-14T08:44:53.125Z,2.20
2023-04-14T08:45:57.916Z,2.40
2023-04-14T08:47:00.427Z,2.00
2023-04-14T08:48:03.876Z,2.90
2023-04-14T08:49:07.392Z,2.33
2023-04-14T08:50:18.761Z,1.80
2023-04-14T08:51:33.762Z,1.93
2023-04-14T08:52:36.887Z,1.87
2023-04-14T08:53:45.957Z,2.37
2023-04-14T08:54:51.069Z,1.40
2023-04-14T08:55:55.243Z,2.03
2023-04-14T08:57:01.139Z,2.57
2023-04-14T08:58:04.380Z,2.50
2023-04-14T08:59:07.208Z,1.90
2023-04-14T09:00:09.865Z,2.17
2023-04-14T09:01:12.932Z,2.40
2023-04-14T09:02:15.996Z,2.10
2023-04-14T09:03:19.830Z,2.20
2023-04-14T09:04:23.568Z,2.03
2023-04-14T09:05:26.178Z,2.00
2023-04-14T09:06:28.747Z,2.30
2023-04-14T09:07:31.320Z,2.47
2023-04-14T09:08:36.480Z,2.53
2023-04-14T09:09:38.792Z,2.27
2023-04-14T09:10:43.621Z,2.60
2023-04-14T09:11:45.932Z,2.07
2023-04-14T09:12:49.096Z,2.27
2023-04-14T09:13:53.735Z,2.17
2023-04-14T09:14:58.291Z,1.90
2023-04-14T09:16:00.353Z,2.30
2023-04-14T09:17:02.744Z,2.30
2023-04-14T09:18:04.820Z,2.00
2023-04-14T09:19:08.018Z,1.90
2023-04-14T09:20:35.924Z,1.83
2023-04-14T09:21:52.897Z,3.10
2023-04-14T09:22:54.915Z,2.10
2023-04-14T09:23:57.391Z,1.57
2023-04-14T09:24:59.105Z,2.80
2023-04-14T09:26:01.320Z,5.70
2023-04-14T09:27:07.025Z,3.38
2023-04-14T09:28:09.036Z,2.10
2023-04-14T09:29:10.881Z,2.07
2023-04-14T09:30:12.947Z,2.27
2023-04-14T09:31:15.122Z,2.07
2023-04-14T09:32:17.010Z,3.20
2023-04-14T09:34:28.539Z,1.80
2023-04-14T09:36:02.869Z,3.70
2023-04-14T09:37:06.564Z,2.03
2023-04-14T09:38:08.344Z,2.20
2023-04-14T09:39:17.723Z,1.95
2023-04-14T09:40:29.398Z,1.67
2023-04-14T09:41:32.549Z,1.93
2023-04-14T09:42:42.701Z,1.70
2023-04-14T09:43:45.798Z,1.63
2023-04-14T09:44:59.202Z,5.77
2023-04-14T09:46:10.954Z,1.83
2023-04-14T09:47:16.547Z,1.70
2023-04-14T09:48:18.479Z,1.93
2023-04-14T09:49:20.105Z,1.60
2023-04-14T09:50:21.998Z,1.50
2023-04-14T09:51:33.026Z,1.90
2023-04-14T09:52:39.364Z,1.77
2023-04-14T09:53:41.217Z,2.10
2023-04-14T09:54:43.754Z,2.17
2023-04-14T09:55:50.972Z,2.13
2023-04-14T09:56:54.492Z,1.87
2023-04-14T09:57:56.856Z,2.08
2023-04-14T09:59:01.037Z,1.45
2023-04-14T10:00:08.701Z,2.63
2023-04-14T10:01:18.023Z,2.07
2023-04-14T10:02:20.753Z,2.03
2023-04-14T10:03:34.753Z,1.63
2023-04-14T10:04:38.276Z,2.03
2023-04-14T10:05:40.121Z,2.23
2023-04-14T10:06:41.898Z,2.10
2023-04-14T10:07:44.009Z,1.90
2023-04-14T10:08:48.948Z,2.13
2023-04-14T10:09:50.780Z,2.10
2023-04-14T10:10:52.859Z,1.57
2023-04-14T10:12:15.844Z,1.77
2023-04-14T10:13:19.430Z,2.03
2023-04-14T10:14:21.359Z,2.27
2023-04-14T10:15:24.137Z,2.27
2023-04-14T10:16:27.029Z,2.23
2023-04-14T10:17:30.329Z,1.57
2023-04-14T10:18:33.090Z,2.30
2023-04-14T10:19:36.306Z,2.00
2023-04-14T10:20:38.597Z,2.30
2023-04-14T10:21:41.151Z,1.97
2023-04-14T10:22:43.446Z,2.27
2023-04-14T10:23:47.233Z,1.50
2023-04-14T10:24:50.008Z,1.88
2023-04-14T10:25:52.455Z,1.50
2023-04-14T10:26:56.079Z,2.20
2023-04-14T10:27:58.043Z,2.07
2023-04-14T10:29:02.277Z,1.77
2023-04-14T10:30:06.963Z,1.80
2023-04-14T10:31:13.891Z,1.90
2023-04-14T10:32:17.554Z,1.53
2023-04-14T10:33:19.734Z,1.57
2023-04-14T10:34:23.858Z,1.60
2023-04-14T10:35:26.173Z,1.90
2023-04-14T10:36:29.284Z,1.80
2023-04-14T10:37:33.149Z,2.00
2023-04-14T10:38:46.673Z,1.90
2023-04-14T10:39:59.508Z,1.47
2023-04-14T10:41:01.238Z,2.00
2023-04-14T10:42:03.001Z,1.88
2023-04-14T10:43:13.066Z,1.43
2023-04-14T10:44:36.107Z,2.00
2023-04-14T10:45:58.648Z,1.77
2023-04-14T10:47:05.771Z,1.67
2023-04-14T10:48:09.515Z,1.73
2023-04-14T10:49:13.366Z,1.83
2023-04-14T10:50:22.245Z,1.60
2023-04-14T10:51:35.798Z,1.50
2023-04-14T10:52:38.832Z,1.75
2023-04-14T10:53:55.903Z,1.50
2023-04-14T10:55:11.765Z,1.70
2023-04-14T10:56:13.991Z,2.30
2023-04-14T10:57:15.736Z,1.60
2023-04-14T10:58:22.671Z,1.80
2023-04-14T10:59:24.547Z,1.70
2023-04-14T11:00:28.953Z,1.80
2023-04-14T11:01:32.842Z,2.20
2023-04-14T11:02:35.223Z,1.80
2023-04-14T11:03:44.886Z,1.57
2023-04-14T11:05:08.466Z,2.03
2023-04-14T11:06:12.656Z,1.90
2023-04-14T11:07:21.801Z,1.48
2023-04-14T11:08:36.414Z,1.60
2023-04-14T11:09:38.256Z,1.77
2023-04-14T11:10:40.162Z,1.90
2023-04-14T11:11:42.330Z,2.00
2023-04-14T11:12:45.084Z,1.80
2023-04-14T11:14:12.698Z,1.80
2023-04-14T11:15:17.548Z,1.77
2023-04-14T11:16:28.985Z,1.58
2023-04-14T11:17:33.338Z,1.23
2023-04-14T11:18:45.400Z,1.53
2023-04-14T11:19:48.794Z,1.47
2023-04-14T11:20:52.705Z,1.37
2023-04-14T11:21:55.505Z,1.80
2023-04-14T11:22:59.202Z,2.50
2023-04-14T11:24:01.981Z,1.97
2023-04-14T11:25:04.387Z,1.33
2023-04-14T11:26:07.402Z,2.03
2023-04-14T11:27:11.789Z,1.73
2023-04-14T11:28:13.816Z,1.77
2023-04-14T11:29:16.723Z,1.77
2023-04-14T11:30:20.039Z,2.10
2023-04-14T11:31:27.726Z,1.97
2023-04-14T11:32:30.402Z,1.27
2023-04-14T11:33:37.549Z,2.03
2023-04-14T11:34:39.403Z,1.50
2023-04-14T11:35:42.341Z,1.73
2023-04-14T11:36:44.227Z,1.80
2023-04-14T11:37:46.537Z,1.67
2023-04-14T11:38:48.454Z,1.57
2023-04-14T11:39:51.603Z,1.80
2023-04-14T11:40:54.542Z,2.00
2023-04-14T11:42:00.410Z,1.60
2023-04-14T11:43:02.632Z,1.57
2023-04-14T11:44:04.691Z,1.70
2023-04-14T11:45:07.490Z,1.50
2023-04-14T11:46:10.036Z,1.50
2023-04-14T11:47:11.780Z,1.93
2023-04-14T11:48:16.934Z,1.55
2023-04-14T11:49:19.693Z,1.60
2023-04-14T11:50:22.913Z,1.50
2023-04-14T11:51:33.753Z,1.60
2023-04-14T11:52:35.470Z,1.50
2023-04-14T11:53:40.115Z,2.22
2023-04-14T11:54:41.865Z,2.10
2023-04-14T11:55:45.108Z,1.90
2023-04-14T11:56:46.812Z,1.60
2023-04-14T11:57:50.525Z,1.70
2023-04-14T11:58:59.835Z,1.53
2023-04-14T12:00:01.946Z,2.13
2023-04-14T12:01:03.976Z,2.10
2023-04-14T12:02:14.659Z,1.50
2023-04-14T12:03:17.235Z,1.70
2023-04-14T12:04:19.722Z,1.80
2023-04-14T12:05:25.399Z,1.80
2023-04-14T12:06:27.782Z,1.75
2023-04-14T12:07:31.133Z,1.87
2023-04-14T12:08:34.015Z,1.57
2023-04-14T12:09:35.831Z,1.43
2023-04-14T12:10:39.089Z,2.70
2023-04-14T12:11:40.830Z,2.40
2023-04-14T12:12:42.864Z,1.30
2023-04-14T12:13:47.128Z,1.52
2023-04-14T12:14:50.012Z,2.30
2023-04-14T12:15:52.871Z,1.63
2023-04-14T12:16:55.077Z,2.03
2023-04-14T12:17:57.762Z,1.63
2023-04-14T12:18:59.831Z,1.70
2023-04-14T12:20:01.966Z,1.43
2023-04-14T12:21:05.948Z,2.00
2023-04-14T12:22:09.683Z,1.70
2023-04-14T12:23:11.592Z,2.00
2023-04-14T12:24:13.381Z,2.00
2023-04-14T12:25:15.898Z,1.65
2023-04-14T12:26:19.683Z,1.60
2023-04-14T12:27:27.282Z,1.63
2023-04-14T12:28:29.994Z,1.20
2023-04-14T12:29:35.817Z,1.77
2023-04-14T12:30:38.049Z,1.67
2023-04-14T12:31:44.709Z,1.47
2023-04-14T12:32:46.886Z,1.80
2023-04-14T12:33:50.174Z,1.55
2023-04-14T12:34:58.544Z,1.67
2023-04-14T12:36:05.424Z,1.10
2023-04-14T12:37:09.855Z,1.90
2023-04-14T12:38:12.804Z,1.93
2023-04-14T12:39:14.642Z,1.40
2023-04-14T12:40:17.585Z,1.80
2023-04-14T12:41:26.579Z,1.77
2023-04-14T12:42:43.083Z,1.30
2023-04-14T12:43:44.939Z,1.40
2023-04-14T12:45:02.252Z,1.57
2023-04-14T12:46:05.764Z,1.70
2023-04-14T12:47:08.420Z,1.50
2023-04-14T12:48:10.628Z,1.30
2023-04-14T12:49:31.053Z,1.40
2023-04-14T12:50:33.505Z,1.77
2023-04-14T12:51:41.357Z,1.50
2023-04-14T12:52:43.170Z,1.20
2023-04-14T12:53:46.820Z,1.73
2023-04-14T12:54:51.776Z,1.50
2023-04-14T12:56:09.700Z,1.70
2023-04-14T12:57:13.052Z,1.30
2023-04-14T12:58:14.735Z,1.50
2023-04-14T12:59:16.495Z,2.00
2023-04-14T13:00:18.759Z,1.88
2023-04-14T13:01:23.730Z,1.60
2023-04-14T13:02:27.248Z,1.20
2023-04-14T13:03:52.823Z,1.47
2023-04-14T13:04:54.912Z,1.40
2023-04-14T13:05:57.147Z,1.97
2023-04-14T13:06:58.978Z,1.23
2023-04-14T13:08:00.759Z,1.80
2023-04-14T13:09:03.412Z,1.47
2023-04-14T13:10:05.949Z,2.30
2023-04-14T13:11:07.753Z,1.73
2023-04-14T13:12:09.936Z,1.70
2023-04-14T13:13:12.202Z,1.67
2023-04-14T13:14:13.886Z,1.30
2023-04-14T13:16:12.200Z,1.67
2023-04-14T13:16:37.427Z,2.23
2023-04-14T13:17:39.168Z,2.53
2023-04-14T13:18:41.262Z,1.50
2023-04-14T13:19:42.997Z,2.00
2023-04-14T13:20:52.800Z,1.60
2023-04-14T13:21:54.456Z,1.67
2023-04-14T13:22:56.246Z,1.30
2023-04-14T13:23:58.209Z,1.63
2023-04-14T13:25:01.028Z,1.43
2023-04-14T13:26:02.946Z,1.40
2023-04-14T13:27:04.676Z,1.60
2023-04-14T13:28:06.807Z,1.50
2023-04-14T13:29:08.538Z,1.73
2023-04-14T13:30:10.863Z,1.20
2023-04-14T13:31:17.212Z,1.27
2023-04-14T13:32:19.073Z,1.17
2023-04-14T13:33:21.541Z,1.37
2023-04-14T13:34:23.855Z,1.30
2023-04-14T13:35:25.894Z,1.00
2023-04-14T13:36:27.781Z,1.33
2023-04-14T13:37:29.640Z,1.30
2023-04-14T13:38:31.689Z,1.50
2023-04-14T13:39:33.429Z,1.80
2023-04-14T13:40:35.302Z,8.20
2023-04-14T13:41:37.540Z,1.90
2023-04-14T13:42:39.706Z,1.50
2023-04-14T13:43:41.662Z,1.30
2023-04-14T13:44:43.467Z,1.50
2023-04-14T13:45:45.482Z,1.43
2023-04-14T13:46:49.086Z,1.10
2023-04-14T13:47:52.111Z,1.37
2023-04-14T13:48:54.819Z,1.20
2023-04-14T13:49:56.919Z,1.53
2023-04-14T13:50:59.633Z,1.20
2023-04-14T13:52:01.397Z,1.60
2023-04-14T13:53:03.274Z,1.60
2023-04-14T13:54:05.628Z,1.40
2023-04-14T13:55:09.857Z,1.80
2023-04-14T13:56:11.954Z,1.57
2023-04-14T13:57:14.104Z,1.63
2023-04-14T13:58:16.354Z,2.70
2023-04-14T13:59:18.172Z,3.20
2023-04-14T14:00:20.066Z,2.80
2023-04-14T14:01:22.493Z,1.53
2023-04-14T14:02:24.505Z,0.97
2023-04-14T14:03:28.437Z,1.20
2023-04-14T14:04:36.406Z,1.63
2023-04-14T14:05:38.373Z,1.60
2023-04-14T14:06:40.172Z,1.30
2023-04-14T14:07:41.824Z,1.87
2023-04-14T14:08:43.807Z,9.30
2023-04-14T14:09:46.149Z,3.30
2023-04-14T14:10:47.849Z,1.20
2023-04-14T14:11:49.586Z,1.07
2023-04-14T14:12:51.700Z,1.27
2023-04-14T14:13:53.557Z,1.00
2023-04-14T14:14:55.673Z,1.13
2023-04-14T14:15:58.802Z,1.43